Time;durP1;ratioP1;P1;durP2;ratioP2;P2;SDS_P1;SDS_P2;PMS_P1;PMS_P2;Temp;Humidity;BMP_temperature;BMP_pressure;BME280_temperature;BME280_humidity;BME280_pressure;Samples;Min_cycle;Max_cycle;Signal;HPM_P1;HPM_P2
2022/06/25 06:01:22;;;;;;;4.53;2.43;;;;;;;;;;10489739;27;20489;-84
2022/06/25 06:06:23;;;;;;;4.55;2.58;;;;;;;;;;10475440;28;20334;-80
2022/06/25 06:11:25;;;;;;;2.95;2.13;;;;;;;;;;10457642;28;20025;-80
2022/06/25 06:16:29;;;;;;;3.95;2.15;;;;;;;;;;10458870;28;20064;-83
2022/06/25 06:21:30;;;;;;;6.85;2.65;;;;;;;;;;10460261;28;20052;-83
2022/06/25 06:26:32;;;;;;;2.65;1.98;;;;;;;;;;10459908;28;20497;-83
2022/06/25 06:31:33;;;;;;;5.45;2.20;;;;;;;;;;10458269;28;20045;-82
2022/06/25 06:36:40;;;;;;;3.85;2.28;;;;;;;;;;10456786;28;20033;-83
2022/06/25 06:41:58;;;;;;;3.35;1.70;;;;;;;;;;10456635;28;20052;-82
2022/06/25 06:47:14;;;;;;;3.85;2.30;;;;;;;;;;10458584;28;20067;-85
2022/06/25 06:52:40;;;;;;;4.53;2.00;;;;;;;;;;10458791;28;20391;-85
2022/06/25 06:57:41;;;;;;;3.67;1.92;;;;;;;;;;10452693;28;20546;-85
2022/06/25 07:02:42;;;;;;;3.60;2.00;;;;;;;;;;10462600;28;20074;-84
2022/06/25 07:07:43;;;;;;;3.47;1.70;;;;;;;;;;10456714;28;20029;-82
2022/06/25 07:12:44;;;;;;;3.08;1.77;;;;;;;;;;10428305;28;20026;-82
2022/06/25 07:17:45;;;;;;;2.58;1.80;;;;;;;;;;10428871;28;20039;-82
2022/06/25 07:22:46;;;;;;;2.10;1.55;;;;;;;;;;10424583;28;20021;-78
2022/06/25 07:27:48;;;;;;;3.70;1.70;;;;;;;;;;10423538;28;20092;-78
2022/06/25 07:32:49;;;;;;;4.45;3.00;;;;;;;;;;10437812;28;20027;-78
2022/06/25 07:37:51;;;;;;;7.25;3.60;;;;;;;;;;10438521;28;20061;-83
2022/06/25 07:43:11;;;;;;;4.30;2.30;;;;;;;;;;10460942;28;20037;-84
2022/06/25 07:48:17;;;;;;;4.80;2.63;;;;;;;;;;10440145;28;20026;-84
2022/06/25 07:53:20;;;;;;;7.53;5.85;;;;;;;;;;10433510;28;20088;-84
2022/06/25 07:58:23;;;;;;;15.30;8.98;;;;;;;;;;10432774;28;20038;-84
2022/06/25 08:03:24;;;;;;;3.08;1.60;;;;;;;;;;10426643;28;20030;-84
2022/06/25 08:08:29;;;;;;;3.58;1.80;;;;;;;;;;10422911;28;20033;-84
2022/06/25 08:13:30;;;;;;;4.90;1.77;;;;;;;;;;10424095;28;20033;-84
2022/06/25 08:18:32;;;;;;;5.90;2.90;;;;;;;;;;10425974;28;20033;-85
2022/06/25 08:23:33;;;;;;;4.68;1.70;;;;;;;;;;10424454;28;20029;-85
2022/06/25 08:28:34;;;;;;;3.58;1.50;;;;;;;;;;10427454;28;20105;-84
2022/06/25 08:33:40;;;;;;;5.35;1.83;;;;;;;;;;10426075;28;20072;-84
2022/06/25 08:38:46;;;;;;;3.72;2.17;;;;;;;;;;10433479;28;20041;-85
2022/06/25 08:43:51;;;;;;;7.35;4.85;;;;;;;;;;10427465;28;20017;-85
2022/06/25 08:48:56;;;;;;;3.00;2.20;;;;;;;;;;10427058;28;20029;-84
2022/06/25 08:53:58;;;;;;;2.97;1.80;;;;;;;;;;10428459;28;20096;-84
2022/06/25 08:58:59;;;;;;;2.90;1.90;;;;;;;;;;10426517;28;20055;-85
2022/06/25 09:04:16;;;;;;;3.28;2.25;;;;;;;;;;10430907;28;20079;-85
2022/06/25 09:20:22;;;;;;;3.33;1.65;;;;;;;;;;10437357;28;20045;-85
2022/06/25 09:25:41;;;;;;;4.10;1.67;;;;;;;;;;10459886;28;20108;-85
2022/06/25 09:31:09;;;;;;;3.72;2.20;;;;;;;;;;10472790;28;20029;-85
2022/06/25 09:42:58;;;;;;;3.97;1.80;;;;;;;;;;10303432;28;20035;-86
2022/06/25 09:48:01;;;;;;;5.70;1.85;;;;;;;;;;10369807;28;20105;-85
2022/06/25 09:53:22;;;;;;;3.53;1.85;;;;;;;;;;10364195;28;20041;-85
2022/06/25 09:58:44;;;;;;;7.75;2.17;;;;;;;;;;10378997;28;20034;-84
2022/06/25 10:03:46;;;;;;;5.63;2.85;;;;;;;;;;10447947;28;20041;-84
2022/06/25 10:08:58;;;;;;;3.70;1.80;;;;;;;;;;10457418;28;20072;-85
2022/06/25 10:20:03;;;;;;;2.97;2.00;;;;;;;;;;10341803;28;20508;-84
2022/06/25 10:25:42;;;;;;;4.75;2.10;;;;;;;;;;10323925;28;20050;-86
2022/06/25 10:30:48;;;;;;;4.30;3.10;;;;;;;;;;10325878;28;20528;-85
2022/06/25 10:53:18;;;;;;;;;;;;;;;;;;10256635;29;20106;-86
2022/06/25 10:58:59;;;;;;;3.92;1.88;;;;;;;;;;10302569;28;20014;-86
2022/06/25 11:04:15;;;;;;;4.78;1.90;;;;;;;;;;10284229;28;20057;-86
2022/06/25 11:09:40;;;;;;;5.32;1.92;;;;;;;;;;10292165;28;20071;-84
2022/06/25 11:14:49;;;;;;;3.95;1.90;;;;;;;;;;10305893;28;20063;-86
2022/06/25 11:20:22;;;;;;;4.38;2.05;;;;;;;;;;10365667;28;20100;-86
2022/06/25 11:31:43;;;;;;;9.87;7.47;;;;;;;;;;10495820;28;20025;-83
2022/06/25 11:43:02;;;;;;;5.88;3.28;;;;;;;;;;10495620;28;20071;-83
2022/06/25 11:48:27;;;;;;;3.45;2.33;;;;;;;;;;10455304;28;20029;-86
2022/06/25 11:59:08;;;;;;;3.92;2.03;;;;;;;;;;10488490;28;20025;-85
2022/06/25 15:57:54;;;;;;;4.53;1.80;;;;;;;;;;10464746;28;20058;-88
